Aviosuperficie Boglietto

IT-0043 · 皮埃蒙特, 意大利

使用的METAR站距离机场47 km。
罗盘
风向 的 风向 的 风向 到 风向 140° Aviosuperficie Boglietto 10/28
风: 5 kt, 2 beaufort

4 kt

3 kt
改变
0 ft 1.000 2.000 3.000 4.000 5.000
VV 0
METAR LIMK 281255Z 14005KT 100V190 0100 FG VV/// 08/08 Q1016

METAR Aviosuperficie Boglietto - IT-0043

Aviosuperficie Boglietto是,意大利中的小机场。 该机场位于纬度44,75855和经度8,18424。 该机场有一条跑道: 10/28. 这个机场没有ICAO代码,我们使用IT-0043作为参考。 机场在Milano FIR中。

该航空气象观测是针对Torino / Bric Della Croce在2024年2月28日 13:55, 当地时间进行的。

机场观察

风向为140°,速度为5 kt。 风向在100°和190°之间变化。

可见度为100 m。

垂直能见度为0 ft 没有观察到天花板。

当前天气为多雾路段。 温度为8 °C,阵风为5 °C。 露点为8 °C,相对湿度为100%。 海平面上的气压为1016 hPa (QNH)。

白天

今天,太阳从07:07升起,在18:12降落。 这适用于Aviosuperficie Boglietto,世界夏令时可能有所不同。 当地时间与世界标准时间之间的时差为+1 小时。 当前,没有夏令时有效。

公司介绍

我们没有关于这个机场的公司信息。

体会

到Vliegles.nl去找飞行课程,跳伞和其他飞行体验。 浏览页面,了解Aviosuperficie Boglietto附近所有可用的活动。 你也可以使用搜索功能来寻找你所在地附近的特定飞行课程、跳伞或其他飞行体验。

警示语

垂直能见度为0 ft。

跑道

Id 标题 侧风 逆风 侧风 %
10/28 097°-277° 3 kt 4 kt 68 %

逆风成分最大的方向会被突出显示,并用于横风计算。 这并不一定意味着这个方向在使用。

乌云

0 ft VV 垂直能见度

温度 & 天气

天气 多雾路段
温度 8 °C
露点 8 °C
相对湿度 100%
风寒 5 °C
Kp-index 0 (0-9)

白天

日出
07:09
中午
12:41
日落
18:13 (4:02)

小工具

你想在你的网站上有一个关于Aviosuperficie Boglietto的当前航空天气(METAR)的小部件吗?

显示HTML代码
?>